sensor_id;sensor_type;location;lat;lon;timestamp;P1;durP1;ratioP1;P2;durP2;ratioP2
11771;SDS011;12556;55.748;13.194;2022-08-21T00:00:22;3.03;;;2.20;;
11771;SDS011;12556;55.748;13.194;2022-08-21T00:02:54;2.63;;;1.77;;
11771;SDS011;12556;55.748;13.194;2022-08-21T00:05:23;2.00;;;1.70;;
11771;SDS011;12556;55.748;13.194;2022-08-21T00:07:51;3.43;;;2.00;;
11771;SDS011;12556;55.748;13.194;2022-08-21T00:10:18;4.80;;;1.83;;
11771;SDS011;12556;55.748;13.194;2022-08-21T00:12:45;3.83;;;1.57;;
11771;SDS011;12556;55.748;13.194;2022-08-21T00:15:14;3.17;;;2.20;;
11771;SDS011;12556;55.748;13.194;2022-08-21T00:17:44;2.17;;;1.93;;
11771;SDS011;12556;55.748;13.194;2022-08-21T00:20:12;5.23;;;2.30;;
11771;SDS011;12556;55.748;13.194;2022-08-21T00:22:40;6.03;;;2.20;;
11771;SDS011;12556;55.748;13.194;2022-08-21T00:25:08;3.30;;;2.20;;
11771;SDS011;12556;55.748;13.194;2022-08-21T00:27:35;5.40;;;1.97;;
11771;SDS011;12556;55.748;13.194;2022-08-21T00:30:04;5.43;;;1.80;;
11771;SDS011;12556;55.748;13.194;2022-08-21T00:32:32;5.67;;;2.13;;
11771;SDS011;12556;55.748;13.194;2022-08-21T00:35:03;5.40;;;2.00;;
11771;SDS011;12556;55.748;13.194;2022-08-21T00:37:31;2.33;;;1.80;;
11771;SDS011;12556;55.748;13.194;2022-08-21T00:39:57;6.50;;;2.07;;
11771;SDS011;12556;55.748;13.194;2022-08-21T00:42:24;3.70;;;1.80;;
11771;SDS011;12556;55.748;13.194;2022-08-21T00:44:53;3.90;;;1.90;;
11771;SDS011;12556;55.748;13.194;2022-08-21T00:47:19;5.23;;;1.80;;
11771;SDS011;12556;55.748;13.194;2022-08-21T00:49:46;3.37;;;2.30;;
11771;SDS011;12556;55.748;13.194;2022-08-21T00:52:15;3.20;;;1.83;;
11771;SDS011;12556;55.748;13.194;2022-08-21T00:54:45;3.30;;;2.10;;
11771;SDS011;12556;55.748;13.194;2022-08-21T00:57:14;3.00;;;2.07;;
11771;SDS011;12556;55.748;13.194;2022-08-21T00:59:46;3.37;;;2.10;;
11771;SDS011;12556;55.748;13.194;2022-08-21T01:02:17;3.37;;;2.20;;
11771;SDS011;12556;55.748;13.194;2022-08-21T01:04:45;3.87;;;2.43;;
11771;SDS011;12556;55.748;13.194;2022-08-21T01:07:12;5.10;;;2.57;;
11771;SDS011;12556;55.748;13.194;2022-08-21T01:09:41;5.47;;;2.60;;
11771;SDS011;12556;55.748;13.194;2022-08-21T01:12:09;2.50;;;1.87;;
11771;SDS011;12556;55.748;13.194;2022-08-21T01:14:36;3.83;;;2.17;;
11771;SDS011;12556;55.748;13.194;2022-08-21T01:17:04;3.63;;;1.90;;
11771;SDS011;12556;55.748;13.194;2022-08-21T01:19:31;4.67;;;2.30;;
11771;SDS011;12556;55.748;13.194;2022-08-21T01:22:00;2.63;;;1.80;;
11771;SDS011;12556;55.748;13.194;2022-08-21T01:24:28;3.37;;;1.83;;
11771;SDS011;12556;55.748;13.194;2022-08-21T01:26:56;3.17;;;2.00;;
11771;SDS011;12556;55.748;13.194;2022-08-21T01:29:26;5.40;;;2.20;;
11771;SDS011;12556;55.748;13.194;2022-08-21T01:31:58;3.60;;;1.73;;
11771;SDS011;12556;55.748;13.194;2022-08-21T01:34:28;3.93;;;2.10;;
11771;SDS011;12556;55.748;13.194;2022-08-21T01:36:55;4.67;;;2.70;;
11771;SDS011;12556;55.748;13.194;2022-08-21T01:39:24;5.40;;;2.10;;
11771;SDS011;12556;55.748;13.194;2022-08-21T01:41:50;2.77;;;2.10;;
11771;SDS011;12556;55.748;13.194;2022-08-21T01:44:19;3.73;;;2.20;;
11771;SDS011;12556;55.748;13.194;2022-08-21T01:46:47;6.77;;;2.07;;
11771;SDS011;12556;55.748;13.194;2022-08-21T01:49:14;3.77;;;2.03;;
11771;SDS011;12556;55.748;13.194;2022-08-21T01:51:41;3.70;;;2.10;;
11771;SDS011;12556;55.748;13.194;2022-08-21T01:54:08;5.90;;;2.50;;
11771;SDS011;12556;55.748;13.194;2022-08-21T01:56:37;5.40;;;2.50;;
11771;SDS011;12556;55.748;13.194;2022-08-21T01:59:05;5.07;;;2.33;;
11771;SDS011;12556;55.748;13.194;2022-08-21T02:01:32;5.57;;;2.40;;
11771;SDS011;12556;55.748;13.194;2022-08-21T02:03:59;3.53;;;2.33;;
11771;SDS011;12556;55.748;13.194;2022-08-21T02:06:26;3.83;;;2.63;;
11771;SDS011;12556;55.748;13.194;2022-08-21T02:08:53;3.90;;;1.97;;
11771;SDS011;12556;55.748;13.194;2022-08-21T02:11:20;3.07;;;2.73;;
11771;SDS011;12556;55.748;13.194;2022-08-21T02:13:48;5.70;;;2.67;;
11771;SDS011;12556;55.748;13.194;2022-08-21T02:16:15;4.33;;;2.40;;
11771;SDS011;12556;55.748;13.194;2022-08-21T02:18:42;4.83;;;2.57;;
11771;SDS011;12556;55.748;13.194;2022-08-21T02:21:09;5.87;;;2.50;;
11771;SDS011;12556;55.748;13.194;2022-08-21T02:23:36;3.10;;;2.30;;
11771;SDS011;12556;55.748;13.194;2022-08-21T02:26:04;4.07;;;2.47;;
11771;SDS011;12556;55.748;13.194;2022-08-21T02:28:33;7.17;;;2.97;;
11771;SDS011;12556;55.748;13.194;2022-08-21T02:31:02;6.33;;;2.13;;
11771;SDS011;12556;55.748;13.194;2022-08-21T02:33:29;3.53;;;2.60;;
11771;SDS011;12556;55.748;13.194;2022-08-21T02:35:56;5.50;;;2.40;;
11771;SDS011;12556;55.748;13.194;2022-08-21T02:38:29;3.10;;;1.77;;
11771;SDS011;12556;55.748;13.194;2022-08-21T02:40:58;7.87;;;2.40;;
11771;SDS011;12556;55.748;13.194;2022-08-21T02:43:26;3.43;;;1.90;;
11771;SDS011;12556;55.748;13.194;2022-08-21T02:45:54;5.40;;;2.07;;
11771;SDS011;12556;55.748;13.194;2022-08-21T02:48:24;5.47;;;2.30;;
11771;SDS011;12556;55.748;13.194;2022-08-21T02:50:53;2.43;;;1.73;;
11771;SDS011;12556;55.748;13.194;2022-08-21T02:53:22;5.77;;;2.53;;
11771;SDS011;12556;55.748;13.194;2022-08-21T02:55:50;5.27;;;2.27;;
11771;SDS011;12556;55.748;13.194;2022-08-21T02:58:18;5.73;;;2.20;;
11771;SDS011;12556;55.748;13.194;2022-08-21T03:00:48;6.80;;;2.00;;
11771;SDS011;12556;55.748;13.194;2022-08-21T03:03:16;4.60;;;2.33;;
11771;SDS011;12556;55.748;13.194;2022-08-21T03:05:44;2.73;;;1.80;;
11771;SDS011;12556;55.748;13.194;2022-08-21T03:08:12;4.03;;;1.57;;
11771;SDS011;12556;55.748;13.194;2022-08-21T03:10:40;2.83;;;1.60;;
11771;SDS011;12556;55.748;13.194;2022-08-21T03:13:10;4.63;;;1.37;;
11771;SDS011;12556;55.748;13.194;2022-08-21T03:15:38;3.50;;;1.73;;
11771;SDS011;12556;55.748;13.194;2022-08-21T03:18:05;4.10;;;1.97;;
11771;SDS011;12556;55.748;13.194;2022-08-21T03:20:33;4.30;;;1.77;;
11771;SDS011;12556;55.748;13.194;2022-08-21T03:23:03;5.17;;;1.73;;
11771;SDS011;12556;55.748;13.194;2022-08-21T03:25:31;3.73;;;2.20;;
11771;SDS011;12556;55.748;13.194;2022-08-21T03:27:59;4.53;;;2.00;;
11771;SDS011;12556;55.748;13.194;2022-08-21T03:30:26;4.67;;;1.50;;
11771;SDS011;12556;55.748;13.194;2022-08-21T03:32:56;5.67;;;1.63;;
11771;SDS011;12556;55.748;13.194;2022-08-21T03:35:23;2.60;;;1.77;;
11771;SDS011;12556;55.748;13.194;2022-08-21T03:37:50;3.50;;;1.93;;
11771;SDS011;12556;55.748;13.194;2022-08-21T03:40:18;5.67;;;1.30;;
11771;SDS011;12556;55.748;13.194;2022-08-21T03:42:46;2.93;;;1.77;;
11771;SDS011;12556;55.748;13.194;2022-08-21T03:45:14;2.10;;;1.67;;
11771;SDS011;12556;55.748;13.194;2022-08-21T03:47:50;3.67;;;1.57;;
11771;SDS011;12556;55.748;13.194;2022-08-21T03:50:18;5.63;;;1.90;;
11771;SDS011;12556;55.748;13.194;2022-08-21T03:52:46;3.97;;;1.50;;
11771;SDS011;12556;55.748;13.194;2022-08-21T03:55:13;2.03;;;1.23;;
11771;SDS011;12556;55.748;13.194;2022-08-21T03:57:41;3.07;;;1.70;;
11771;SDS011;12556;55.748;13.194;2022-08-21T04:00:09;4.30;;;1.60;;
11771;SDS011;12556;55.748;13.194;2022-08-21T04:02:38;5.50;;;1.67;;
11771;SDS011;12556;55.748;13.194;2022-08-21T04:05:05;4.30;;;1.50;;
11771;SDS011;12556;55.748;13.194;2022-08-21T04:07:33;2.13;;;1.50;;
11771;SDS011;12556;55.748;13.194;2022-08-21T04:10:00;3.93;;;1.77;;
11771;SDS011;12556;55.748;13.194;2022-08-21T04:12:27;4.17;;;1.63;;
11771;SDS011;12556;55.748;13.194;2022-08-21T04:14:56;3.73;;;1.57;;
11771;SDS011;12556;55.748;13.194;2022-08-21T04:17:23;2.07;;;1.40;;
11771;SDS011;12556;55.748;13.194;2022-08-21T04:19:50;4.87;;;1.43;;
11771;SDS011;12556;55.748;13.194;2022-08-21T04:22:17;4.00;;;1.60;;
11771;SDS011;12556;55.748;13.194;2022-08-21T04:24:44;2.10;;;1.50;;
11771;SDS011;12556;55.748;13.194;2022-08-21T04:27:11;1.53;;;1.33;;
11771;SDS011;12556;55.748;13.194;2022-08-21T04:29:37;3.53;;;1.53;;
11771;SDS011;12556;55.748;13.194;2022-08-21T04:32:06;7.23;;;1.40;;
11771;SDS011;12556;55.748;13.194;2022-08-21T04:34:33;5.27;;;1.67;;
11771;SDS011;12556;55.748;13.194;2022-08-21T04:36:59;4.90;;;1.20;;
11771;SDS011;12556;55.748;13.194;2022-08-21T04:39:26;4.97;;;1.60;;
11771;SDS011;12556;55.748;13.194;2022-08-21T04:41:53;2.77;;;1.37;;
11771;SDS011;12556;55.748;13.194;2022-08-21T04:44:20;4.00;;;1.60;;
11771;SDS011;12556;55.748;13.194;2022-08-21T04:46:47;5.90;;;1.70;;
11771;SDS011;12556;55.748;13.194;2022-08-21T04:49:15;2.07;;;1.50;;
11771;SDS011;12556;55.748;13.194;2022-08-21T04:51:42;2.00;;;1.30;;
11771;SDS011;12556;55.748;13.194;2022-08-21T04:54:10;6.37;;;1.40;;
11771;SDS011;12556;55.748;13.194;2022-08-21T04:56:41;4.70;;;1.43;;
11771;SDS011;12556;55.748;13.194;2022-08-21T04:59:11;3.50;;;1.20;;
11771;SDS011;12556;55.748;13.194;2022-08-21T05:01:42;3.43;;;1.60;;
11771;SDS011;12556;55.748;13.194;2022-08-21T05:04:10;2.73;;;1.50;;
11771;SDS011;12556;55.748;13.194;2022-08-21T05:06:41;4.70;;;1.67;;
11771;SDS011;12556;55.748;13.194;2022-08-21T05:09:11;2.63;;;1.30;;
11771;SDS011;12556;55.748;13.194;2022-08-21T05:11:40;3.67;;;1.90;;
11771;SDS011;12556;55.748;13.194;2022-08-21T05:14:08;3.10;;;1.50;;
11771;SDS011;12556;55.748;13.194;2022-08-21T05:16:35;3.70;;;1.43;;
11771;SDS011;12556;55.748;13.194;2022-08-21T05:19:02;3.63;;;1.30;;
11771;SDS011;12556;55.748;13.194;2022-08-21T05:21:29;2.80;;;1.50;;
11771;SDS011;12556;55.748;13.194;2022-08-21T05:23:57;4.07;;;1.60;;
11771;SDS011;12556;55.748;13.194;2022-08-21T05:26:24;6.00;;;1.60;;
11771;SDS011;12556;55.748;13.194;2022-08-21T05:28:51;5.90;;;2.13;;
11771;SDS011;12556;55.748;13.194;2022-08-21T05:31:18;2.67;;;1.67;;
11771;SDS011;12556;55.748;13.194;2022-08-21T05:33:45;5.93;;;1.80;;
11771;SDS011;12556;55.748;13.194;2022-08-21T05:36:12;3.20;;;1.60;;
11771;SDS011;12556;55.748;13.194;2022-08-21T05:38:38;5.20;;;1.93;;
11771;SDS011;12556;55.748;13.194;2022-08-21T05:41:07;3.30;;;1.80;;
11771;SDS011;12556;55.748;13.194;2022-08-21T05:43:34;5.07;;;2.13;;
11771;SDS011;12556;55.748;13.194;2022-08-21T05:46:01;6.60;;;1.80;;
11771;SDS011;12556;55.748;13.194;2022-08-21T05:48:29;2.97;;;2.00;;
11771;SDS011;12556;55.748;13.194;2022-08-21T05:50:57;4.63;;;1.70;;
11771;SDS011;12556;55.748;13.194;2022-08-21T05:53:24;5.53;;;1.63;;
11771;SDS011;12556;55.748;13.194;2022-08-21T05:55:51;2.23;;;1.73;;
11771;SDS011;12556;55.748;13.194;2022-08-21T05:58:20;4.57;;;2.17;;
11771;SDS011;12556;55.748;13.194;2022-08-21T06:00:49;7.50;;;2.13;;
11771;SDS011;12556;55.748;13.194;2022-08-21T06:03:22;3.87;;;1.60;;
11771;SDS011;12556;55.748;13.194;2022-08-21T06:05:50;5.00;;;1.80;;
11771;SDS011;12556;55.748;13.194;2022-08-21T06:08:18;4.70;;;2.07;;
11771;SDS011;12556;55.748;13.194;2022-08-21T06:10:47;5.93;;;1.70;;
11771;SDS011;12556;55.748;13.194;2022-08-21T06:13:15;3.27;;;1.60;;
11771;SDS011;12556;55.748;13.194;2022-08-21T06:15:45;4.50;;;1.40;;
11771;SDS011;12556;55.748;13.194;2022-08-21T06:18:12;2.47;;;1.33;;
11771;SDS011;12556;55.748;13.194;2022-08-21T06:20:39;3.07;;;1.50;;
11771;SDS011;12556;55.748;13.194;2022-08-21T06:23:07;3.63;;;1.50;;
11771;SDS011;12556;55.748;13.194;2022-08-21T06:25:34;2.80;;;1.30;;
11771;SDS011;12556;55.748;13.194;2022-08-21T06:28:02;4.37;;;1.60;;
11771;SDS011;12556;55.748;13.194;2022-08-21T06:30:30;5.17;;;1.50;;
11771;SDS011;12556;55.748;13.194;2022-08-21T06:32:58;2.87;;;1.40;;
11771;SDS011;12556;55.748;13.194;2022-08-21T06:35:26;2.63;;;1.33;;
11771;SDS011;12556;55.748;13.194;2022-08-21T06:37:54;3.53;;;1.50;;
11771;SDS011;12556;55.748;13.194;2022-08-21T06:40:21;2.63;;;1.30;;
11771;SDS011;12556;55.748;13.194;2022-08-21T06:42:48;4.97;;;1.33;;
11771;SDS011;12556;55.748;13.194;2022-08-21T06:45:15;4.50;;;1.87;;
11771;SDS011;12556;55.748;13.194;2022-08-21T06:47:42;2.37;;;1.40;;
11771;SDS011;12556;55.748;13.194;2022-08-21T06:50:10;6.03;;;1.80;;
11771;SDS011;12556;55.748;13.194;2022-08-21T06:52:37;3.43;;;1.57;;
11771;SDS011;12556;55.748;13.194;2022-08-21T06:55:06;3.47;;;1.50;;
11771;SDS011;12556;55.748;13.194;2022-08-21T06:57:35;7.03;;;1.52;;
11771;SDS011;12556;55.748;13.194;2022-08-21T07:00:02;1.98;;;1.60;;
11771;SDS011;12556;55.748;13.194;2022-08-21T07:02:30;4.30;;;1.67;;
11771;SDS011;12556;55.748;13.194;2022-08-21T07:04:58;5.25;;;1.77;;
11771;SDS011;12556;55.748;13.194;2022-08-21T07:07:27;4.18;;;1.58;;
11771;SDS011;12556;55.748;13.194;2022-08-21T07:09:53;3.55;;;1.90;;
11771;SDS011;12556;55.748;13.194;2022-08-21T07:12:20;3.45;;;1.70;;
11771;SDS011;12556;55.748;13.194;2022-08-21T07:14:47;2.85;;;1.60;;
11771;SDS011;12556;55.748;13.194;2022-08-21T07:17:14;3.80;;;1.42;;
11771;SDS011;12556;55.748;13.194;2022-08-21T07:19:41;2.83;;;1.38;;
11771;SDS011;12556;55.748;13.194;2022-08-21T07:22:08;4.03;;;1.73;;
11771;SDS011;12556;55.748;13.194;2022-08-21T07:24:36;3.72;;;1.73;;
11771;SDS011;12556;55.748;13.194;2022-08-21T07:27:03;3.70;;;1.90;;
11771;SDS011;12556;55.748;13.194;2022-08-21T07:29:30;6.30;;;2.22;;
11771;SDS011;12556;55.748;13.194;2022-08-21T07:31:57;3.40;;;1.65;;
11771;SDS011;12556;55.748;13.194;2022-08-21T07:34:24;3.47;;;1.60;;
11771;SDS011;12556;55.748;13.194;2022-08-21T07:36:50;4.22;;;1.75;;
11771;SDS011;12556;55.748;13.194;2022-08-21T07:39:18;2.40;;;1.40;;
11771;SDS011;12556;55.748;13.194;2022-08-21T07:41:46;2.83;;;1.55;;
11771;SDS011;12556;55.748;13.194;2022-08-21T07:44:13;6.00;;;1.35;;
11771;SDS011;12556;55.748;13.194;2022-08-21T07:46:40;6.43;;;1.65;;
11771;SDS011;12556;55.748;13.194;2022-08-21T07:49:06;2.05;;;1.30;;
11771;SDS011;12556;55.748;13.194;2022-08-21T07:51:33;3.05;;;1.20;;
11771;SDS011;12556;55.748;13.194;2022-08-21T07:54:00;5.57;;;1.38;;
11771;SDS011;12556;55.748;13.194;2022-08-21T07:56:28;6.25;;;1.80;;
11771;SDS011;12556;55.748;13.194;2022-08-21T07:58:58;4.53;;;1.58;;
11771;SDS011;12556;55.748;13.194;2022-08-21T08:01:27;3.10;;;1.48;;
11771;SDS011;12556;55.748;13.194;2022-08-21T08:03:55;5.60;;;1.42;;
11771;SDS011;12556;55.748;13.194;2022-08-21T08:06:22;2.08;;;1.25;;
11771;SDS011;12556;55.748;13.194;2022-08-21T08:08:51;2.50;;;1.83;;
11771;SDS011;12556;55.748;13.194;2022-08-21T08:11:18;2.63;;;1.60;;
11771;SDS011;12556;55.748;13.194;2022-08-21T08:13:45;3.42;;;1.50;;
11771;SDS011;12556;55.748;13.194;2022-08-21T08:16:16;4.07;;;1.50;;
11771;SDS011;12556;55.748;13.194;2022-08-21T08:18:44;5.57;;;2.10;;
11771;SDS011;12556;55.748;13.194;2022-08-21T08:21:12;5.25;;;1.83;;
11771;SDS011;12556;55.748;13.194;2022-08-21T08:23:39;2.45;;;1.35;;
11771;SDS011;12556;55.748;13.194;2022-08-21T08:26:06;2.75;;;1.60;;
11771;SDS011;12556;55.748;13.194;2022-08-21T08:28:33;3.30;;;1.45;;
11771;SDS011;12556;55.748;13.194;2022-08-21T08:31:00;2.72;;;1.60;;
11771;SDS011;12556;55.748;13.194;2022-08-21T08:33:30;3.50;;;1.55;;
11771;SDS011;12556;55.748;13.194;2022-08-21T08:35:56;3.15;;;1.63;;
11771;SDS011;12556;55.748;13.194;2022-08-21T08:38:24;2.67;;;1.50;;
11771;SDS011;12556;55.748;13.194;2022-08-21T08:40:53;5.32;;;1.92;;
11771;SDS011;12556;55.748;13.194;2022-08-21T08:43:27;4.07;;;1.65;;
11771;SDS011;12556;55.748;13.194;2022-08-21T08:45:55;2.55;;;1.48;;
11771;SDS011;12556;55.748;13.194;2022-08-21T08:48:31;5.43;;;2.38;;
11771;SDS011;12556;55.748;13.194;2022-08-21T08:51:08;4.28;;;1.80;;
11771;SDS011;12556;55.748;13.194;2022-08-21T08:53:43;4.03;;;1.80;;
11771;SDS011;12556;55.748;13.194;2022-08-21T08:56:15;2.80;;;1.50;;
11771;SDS011;12556;55.748;13.194;2022-08-21T08:58:48;4.38;;;1.50;;
11771;SDS011;12556;55.748;13.194;2022-08-21T09:01:19;3.35;;;1.70;;
11771;SDS011;12556;55.748;13.194;2022-08-21T09:03:47;3.40;;;1.70;;
11771;SDS011;12556;55.748;13.194;2022-08-21T09:06:20;5.45;;;1.75;;
11771;SDS011;12556;55.748;13.194;2022-08-21T09:08:58;3.10;;;1.52;;
11771;SDS011;12556;55.748;13.194;2022-08-21T09:11:35;2.45;;;1.58;;
11771;SDS011;12556;55.748;13.194;2022-08-21T09:14:14;2.15;;;1.55;;
11771;SDS011;12556;55.748;13.194;2022-08-21T09:16:50;3.95;;;1.45;;
11771;SDS011;12556;55.748;13.194;2022-08-21T09:19:36;2.15;;;1.38;;
11771;SDS011;12556;55.748;13.194;2022-08-21T09:22:17;4.63;;;1.42;;
11771;SDS011;12556;55.748;13.194;2022-08-21T09:24:52;2.40;;;1.50;;
11771;SDS011;12556;55.748;13.194;2022-08-21T09:27:24;4.10;;;1.58;;
11771;SDS011;12556;55.748;13.194;2022-08-21T09:29:51;5.03;;;1.42;;
11771;SDS011;12556;55.748;13.194;2022-08-21T09:32:21;2.88;;;1.50;;
11771;SDS011;12556;55.748;13.194;2022-08-21T09:34:59;4.35;;;1.92;;
11771;SDS011;12556;55.748;13.194;2022-08-21T09:37:28;5.07;;;1.65;;
11771;SDS011;12556;55.748;13.194;2022-08-21T09:39:57;6.07;;;2.13;;
11771;SDS011;12556;55.748;13.194;2022-08-21T09:42:25;2.75;;;1.70;;
11771;SDS011;12556;55.748;13.194;2022-08-21T09:45:05;3.42;;;1.60;;
11771;SDS011;12556;55.748;13.194;2022-08-21T09:47:39;3.50;;;1.55;;
11771;SDS011;12556;55.748;13.194;2022-08-21T09:50:12;2.28;;;1.30;;
11771;SDS011;12556;55.748;13.194;2022-08-21T09:52:42;3.95;;;1.45;;
11771;SDS011;12556;55.748;13.194;2022-08-21T09:55:16;4.47;;;1.98;;
11771;SDS011;12556;55.748;13.194;2022-08-21T09:57:59;4.35;;;1.95;;
11771;SDS011;12556;55.748;13.194;2022-08-21T10:00:27;3.65;;;1.80;;
11771;SDS011;12556;55.748;13.194;2022-08-21T10:03:07;3.90;;;1.60;;
11771;SDS011;12556;55.748;13.194;2022-08-21T10:05:37;2.80;;;1.50;;
11771;SDS011;12556;55.748;13.194;2022-08-21T10:08:04;3.97;;;1.70;;
11771;SDS011;12556;55.748;13.194;2022-08-21T10:10:31;3.80;;;1.42;;
11771;SDS011;12556;55.748;13.194;2022-08-21T10:13:03;5.05;;;1.80;;
11771;SDS011;12556;55.748;13.194;2022-08-21T10:15:40;3.78;;;1.40;;
11771;SDS011;12556;55.748;13.194;2022-08-21T10:18:15;3.78;;;1.50;;
11771;SDS011;12556;55.748;13.194;2022-08-21T10:20:51;2.90;;;1.45;;
11771;SDS011;12556;55.748;13.194;2022-08-21T10:23:29;2.35;;;1.35;;
11771;SDS011;12556;55.748;13.194;2022-08-21T10:26:07;2.20;;;1.20;;
11771;SDS011;12556;55.748;13.194;2022-08-21T10:28:44;4.30;;;1.35;;
11771;SDS011;12556;55.748;13.194;2022-08-21T10:31:21;1.63;;;1.15;;
11771;SDS011;12556;55.748;13.194;2022-08-21T10:33:59;2.10;;;1.30;;
11771;SDS011;12556;55.748;13.194;2022-08-21T10:36:42;2.33;;;1.42;;
11771;SDS011;12556;55.748;13.194;2022-08-21T10:39:14;2.63;;;1.33;;
11771;SDS011;12556;55.748;13.194;2022-08-21T10:41:52;2.63;;;1.50;;
11771;SDS011;12556;55.748;13.194;2022-08-21T10:44:35;2.30;;;1.63;;
11771;SDS011;12556;55.748;13.194;2022-08-21T10:47:10;3.05;;;1.52;;
11771;SDS011;12556;55.748;13.194;2022-08-21T10:49:43;2.17;;;1.23;;
11771;SDS011;12556;55.748;13.194;2022-08-21T10:52:22;3.20;;;1.20;;
11771;SDS011;12556;55.748;13.194;2022-08-21T10:54:59;4.25;;;1.40;;
11771;SDS011;12556;55.748;13.194;2022-08-21T10:57:32;3.53;;;1.40;;
11771;SDS011;12556;55.748;13.194;2022-08-21T11:00:06;2.40;;;1.00;;
11771;SDS011;12556;55.748;13.194;2022-08-21T11:02:37;2.28;;;1.20;;
11771;SDS011;12556;55.748;13.194;2022-08-21T11:05:10;2.90;;;1.50;;
11771;SDS011;12556;55.748;13.194;2022-08-21T11:07:45;4.07;;;1.48;;
11771;SDS011;12556;55.748;13.194;2022-08-21T11:10:15;2.30;;;1.48;;
11771;SDS011;12556;55.748;13.194;2022-08-21T11:12:46;2.75;;;1.35;;
11771;SDS011;12556;55.748;13.194;2022-08-21T11:15:21;3.10;;;1.42;;
11771;SDS011;12556;55.748;13.194;2022-08-21T11:17:54;2.90;;;1.50;;
11771;SDS011;12556;55.748;13.194;2022-08-21T11:20:28;3.05;;;1.50;;
11771;SDS011;12556;55.748;13.194;2022-08-21T11:23:05;2.60;;;1.30;;
11771;SDS011;12556;55.748;13.194;2022-08-21T11:25:38;2.20;;;1.42;;
11771;SDS011;12556;55.748;13.194;2022-08-21T11:28:16;3.38;;;1.60;;
11771;SDS011;12556;55.748;13.194;2022-08-21T11:30:52;5.40;;;1.73;;
11771;SDS011;12556;55.748;13.194;2022-08-21T11:33:31;3.50;;;1.63;;
11771;SDS011;12556;55.748;13.194;2022-08-21T11:36:11;1.95;;;1.40;;
11771;SDS011;12556;55.748;13.194;2022-08-21T11:38:48;3.67;;;1.63;;
11771;SDS011;12556;55.748;13.194;2022-08-21T11:41:23;1.83;;;1.30;;
11771;SDS011;12556;55.748;13.194;2022-08-21T11:43:58;3.47;;;1.98;;
11771;SDS011;12556;55.748;13.194;2022-08-21T11:46:32;4.57;;;1.42;;
11771;SDS011;12556;55.748;13.194;2022-08-21T11:49:17;3.67;;;1.80;;
11771;SDS011;12556;55.748;13.194;2022-08-21T11:52:01;4.32;;;1.77;;
11771;SDS011;12556;55.748;13.194;2022-08-21T11:54:37;3.88;;;1.60;;
11771;SDS011;12556;55.748;13.194;2022-08-21T11:57:11;3.85;;;1.67;;
11771;SDS011;12556;55.748;13.194;2022-08-21T11:59:45;4.63;;;1.90;;
11771;SDS011;12556;55.748;13.194;2022-08-21T12:02:18;3.83;;;2.10;;
11771;SDS011;12556;55.748;13.194;2022-08-21T12:04:48;2.72;;;1.70;;
11771;SDS011;12556;55.748;13.194;2022-08-21T12:07:29;3.45;;;2.20;;
11771;SDS011;12556;55.748;13.194;2022-08-21T12:10:01;4.32;;;1.83;;
11771;SDS011;12556;55.748;13.194;2022-08-21T12:12:31;1.90;;;1.35;;
11771;SDS011;12556;55.748;13.194;2022-08-21T12:15:22;2.30;;;1.70;;
11771;SDS011;12556;55.748;13.194;2022-08-21T12:17:56;4.25;;;1.83;;
11771;SDS011;12556;55.748;13.194;2022-08-21T12:20:27;3.95;;;1.70;;
11771;SDS011;12556;55.748;13.194;2022-08-21T12:23:15;3.55;;;1.80;;
11771;SDS011;12556;55.748;13.194;2022-08-21T12:26:13;3.40;;;1.92;;
11771;SDS011;12556;55.748;13.194;2022-08-21T12:28:49;3.05;;;1.67;;
11771;SDS011;12556;55.748;13.194;2022-08-21T12:31:22;3.10;;;1.85;;
11771;SDS011;12556;55.748;13.194;2022-08-21T12:33:52;2.53;;;1.48;;
11771;SDS011;12556;55.748;13.194;2022-08-21T12:36:22;3.40;;;1.80;;
11771;SDS011;12556;55.748;13.194;2022-08-21T12:38:52;4.45;;;1.77;;
11771;SDS011;12556;55.748;13.194;2022-08-21T12:41:26;2.67;;;1.75;;
11771;SDS011;12556;55.748;13.194;2022-08-21T12:43:57;3.10;;;1.98;;
11771;SDS011;12556;55.748;13.194;2022-08-21T12:46:29;4.03;;;2.20;;
11771;SDS011;12556;55.748;13.194;2022-08-21T12:49:03;2.88;;;1.67;;
11771;SDS011;12556;55.748;13.194;2022-08-21T12:51:37;3.72;;;1.80;;
11771;SDS011;12556;55.748;13.194;2022-08-21T12:54:21;2.42;;;1.58;;
11771;SDS011;12556;55.748;13.194;2022-08-21T12:56:56;2.22;;;1.52;;
11771;SDS011;12556;55.748;13.194;2022-08-21T12:59:29;1.40;;;1.20;;
11771;SDS011;12556;55.748;13.194;2022-08-21T13:01:57;2.67;;;1.30;;
11771;SDS011;12556;55.748;13.194;2022-08-21T13:04:32;3.17;;;1.70;;
11771;SDS011;12556;55.748;13.194;2022-08-21T13:07:04;4.65;;;1.92;;
11771;SDS011;12556;55.748;13.194;2022-08-21T13:09:36;3.88;;;1.42;;
11771;SDS011;12556;55.748;13.194;2022-08-21T13:12:09;3.05;;;1.70;;
11771;SDS011;12556;55.748;13.194;2022-08-21T13:14:38;2.35;;;1.67;;
11771;SDS011;12556;55.748;13.194;2022-08-21T13:17:07;1.70;;;1.45;;
11771;SDS011;12556;55.748;13.194;2022-08-21T13:19:36;2.17;;;1.70;;
11771;SDS011;12556;55.748;13.194;2022-08-21T13:22:03;3.28;;;1.60;;
11771;SDS011;12556;55.748;13.194;2022-08-21T13:24:39;2.90;;;1.55;;
11771;SDS011;12556;55.748;13.194;2022-08-21T13:27:16;2.85;;;1.40;;
11771;SDS011;12556;55.748;13.194;2022-08-21T13:29:45;2.63;;;1.65;;
11771;SDS011;12556;55.748;13.194;2022-08-21T13:32:19;3.55;;;1.80;;
11771;SDS011;12556;55.748;13.194;2022-08-21T13:34:51;2.58;;;1.40;;
11771;SDS011;12556;55.748;13.194;2022-08-21T13:37:18;2.20;;;1.33;;
11771;SDS011;12556;55.748;13.194;2022-08-21T13:39:49;2.58;;;1.52;;
11771;SDS011;12556;55.748;13.194;2022-08-21T13:42:18;1.20;;;1.10;;
11771;SDS011;12556;55.748;13.194;2022-08-21T13:44:50;2.70;;;1.40;;
11771;SDS011;12556;55.748;13.194;2022-08-21T13:47:20;2.78;;;1.30;;
11771;SDS011;12556;55.748;13.194;2022-08-21T13:49:47;3.08;;;1.50;;
11771;SDS011;12556;55.748;13.194;2022-08-21T13:52:18;3.15;;;1.42;;
11771;SDS011;12556;55.748;13.194;2022-08-21T13:54:52;4.65;;;1.40;;
11771;SDS011;12556;55.748;13.194;2022-08-21T13:57:26;3.50;;;1.88;;
11771;SDS011;12556;55.748;13.194;2022-08-21T14:00:09;2.40;;;1.50;;
11771;SDS011;12556;55.748;13.194;2022-08-21T14:02:38;1.67;;;1.48;;
11771;SDS011;12556;55.748;13.194;2022-08-21T14:05:10;2.78;;;1.40;;
11771;SDS011;12556;55.748;13.194;2022-08-21T14:07:42;3.92;;;1.40;;
11771;SDS011;12556;55.748;13.194;2022-08-21T14:10:11;2.17;;;1.42;;
11771;SDS011;12556;55.748;13.194;2022-08-21T14:12:43;3.95;;;1.60;;
11771;SDS011;12556;55.748;13.194;2022-08-21T14:15:13;1.40;;;1.23;;
11771;SDS011;12556;55.748;13.194;2022-08-21T14:17:42;2.10;;;1.40;;
11771;SDS011;12556;55.748;13.194;2022-08-21T14:20:10;1.85;;;1.27;;
11771;SDS011;12556;55.748;13.194;2022-08-21T14:22:50;2.35;;;1.45;;
11771;SDS011;12556;55.748;13.194;2022-08-21T14:25:26;2.67;;;1.48;;
11771;SDS011;12556;55.748;13.194;2022-08-21T14:27:58;2.58;;;1.30;;
11771;SDS011;12556;55.748;13.194;2022-08-21T14:30:31;5.82;;;1.70;;
11771;SDS011;12556;55.748;13.194;2022-08-21T14:33:01;4.70;;;1.40;;
11771;SDS011;12556;55.748;13.194;2022-08-21T14:35:29;3.40;;;1.40;;
11771;SDS011;12556;55.748;13.194;2022-08-21T14:37:56;3.15;;;1.40;;
11771;SDS011;12556;55.748;13.194;2022-08-21T14:40:23;2.75;;;1.63;;
11771;SDS011;12556;55.748;13.194;2022-08-21T14:42:51;7.10;;;2.10;;
11771;SDS011;12556;55.748;13.194;2022-08-21T14:45:26;1.77;;;1.30;;
11771;SDS011;12556;55.748;13.194;2022-08-21T14:47:54;1.92;;;1.52;;
11771;SDS011;12556;55.748;13.194;2022-08-21T14:50:22;2.95;;;1.50;;